sensor_id;sensor_type;location;lat;lon;timestamp;P1;durP1;ratioP1;P2;durP2;ratioP2
56746;SDS011;42623;49.978;9.966;2023-04-24T00:00:10;3.33;;;1.70;;
56746;SDS011;42623;49.978;9.966;2023-04-24T00:00:20;3.43;;;2.00;;
56746;SDS011;42623;49.978;9.966;2023-04-24T00:00:30;3.23;;;1.90;;
56746;SDS011;42623;49.978;9.966;2023-04-24T00:00:41;3.03;;;1.83;;
56746;SDS011;42623;49.978;9.966;2023-04-24T00:00:52;2.33;;;1.50;;
56746;SDS011;42623;49.978;9.966;2023-04-24T00:01:02;2.43;;;1.57;;
56746;SDS011;42623;49.978;9.966;2023-04-24T00:01:12;2.37;;;1.40;;
56746;SDS011;42623;49.978;9.966;2023-04-24T00:01:22;2.25;;;1.38;;
56746;SDS011;42623;49.978;9.966;2023-04-24T00:01:33;1.73;;;1.10;;
56746;SDS011;42623;49.978;9.966;2023-04-24T00:01:44;2.17;;;1.40;;
56746;SDS011;42623;49.978;9.966;2023-04-24T00:01:54;2.63;;;1.60;;
56746;SDS011;42623;49.978;9.966;2023-04-24T00:02:05;3.45;;;1.70;;
56746;SDS011;42623;49.978;9.966;2023-04-24T00:02:16;3.67;;;1.65;;
56746;SDS011;42623;49.978;9.966;2023-04-24T00:02:26;3.30;;;1.53;;
56746;SDS011;42623;49.978;9.966;2023-04-24T00:02:37;2.87;;;1.40;;
56746;SDS011;42623;49.978;9.966;2023-04-24T00:02:49;2.67;;;1.40;;
56746;SDS011;42623;49.978;9.966;2023-04-24T00:03:00;3.00;;;1.50;;
56746;SDS011;42623;49.978;9.966;2023-04-24T00:03:10;2.83;;;1.43;;
56746;SDS011;42623;49.978;9.966;2023-04-24T00:03:20;3.83;;;1.57;;
56746;SDS011;42623;49.978;9.966;2023-04-24T00:03:32;4.25;;;1.65;;
56746;SDS011;42623;49.978;9.966;2023-04-24T00:03:42;4.57;;;1.67;;
56746;SDS011;42623;49.978;9.966;2023-04-24T00:03:52;3.47;;;1.50;;
56746;SDS011;42623;49.978;9.966;2023-04-24T00:04:03;3.33;;;1.40;;
56746;SDS011;42623;49.978;9.966;2023-04-24T00:04:13;2.90;;;1.30;;
56746;SDS011;42623;49.978;9.966;2023-04-24T00:04:26;2.78;;;1.40;;
56746;SDS011;42623;49.978;9.966;2023-04-24T00:04:37;2.50;;;1.40;;
56746;SDS011;42623;49.978;9.966;2023-04-24T00:04:50;2.08;;;1.30;;
56746;SDS011;42623;49.978;9.966;2023-04-24T00:05:00;2.30;;;1.20;;
56746;SDS011;42623;49.978;9.966;2023-04-24T00:05:13;3.67;;;1.42;;
56746;SDS011;42623;49.978;9.966;2023-04-24T00:05:23;3.97;;;1.35;;
56746;SDS011;42623;49.978;9.966;2023-04-24T00:05:34;3.35;;;1.40;;
56746;SDS011;42623;49.978;9.966;2023-04-24T00:05:44;2.50;;;1.30;;
56746;SDS011;42623;49.978;9.966;2023-04-24T00:05:55;2.70;;;1.48;;
56746;SDS011;42623;49.978;9.966;2023-04-24T00:06:05;2.90;;;1.50;;
56746;SDS011;42623;49.978;9.966;2023-04-24T00:06:17;2.65;;;1.52;;
56746;SDS011;42623;49.978;9.966;2023-04-24T00:06:28;2.53;;;1.70;;
56746;SDS011;42623;49.978;9.966;2023-04-24T00:06:43;2.53;;;1.65;;
56746;SDS011;42623;49.978;9.966;2023-04-24T00:06:53;3.63;;;1.63;;
56746;SDS011;42623;49.978;9.966;2023-04-24T00:07:06;3.53;;;1.48;;
56746;SDS011;42623;49.978;9.966;2023-04-24T00:07:17;3.40;;;1.40;;
56746;SDS011;42623;49.978;9.966;2023-04-24T00:07:27;2.60;;;1.50;;
56746;SDS011;42623;49.978;9.966;2023-04-24T00:07:37;2.73;;;1.40;;
56746;SDS011;42623;49.978;9.966;2023-04-24T00:07:47;3.10;;;1.53;;
56746;SDS011;42623;49.978;9.966;2023-04-24T00:07:57;2.90;;;1.60;;
56746;SDS011;42623;49.978;9.966;2023-04-24T00:08:07;2.87;;;1.50;;
56746;SDS011;42623;49.978;9.966;2023-04-24T00:08:18;2.65;;;1.48;;
56746;SDS011;42623;49.978;9.966;2023-04-24T00:08:28;2.93;;;1.50;;
56746;SDS011;42623;49.978;9.966;2023-04-24T00:08:38;2.40;;;1.40;;
56746;SDS011;42623;49.978;9.966;2023-04-24T00:08:48;2.13;;;1.30;;
56746;SDS011;42623;49.978;9.966;2023-04-24T00:08:59;1.88;;;1.25;;
56746;SDS011;42623;49.978;9.966;2023-04-24T00:09:10;2.65;;;1.42;;
56746;SDS011;42623;49.978;9.966;2023-04-24T00:09:20;3.33;;;1.60;;
56746;SDS011;42623;49.978;9.966;2023-04-24T00:09:30;3.13;;;1.50;;
56746;SDS011;42623;49.978;9.966;2023-04-24T00:09:40;2.60;;;1.38;;
56746;SDS011;42623;49.978;9.966;2023-04-24T00:09:50;2.13;;;1.23;;
56746;SDS011;42623;49.978;9.966;2023-04-24T00:10:00;3.00;;;1.47;;
56746;SDS011;42623;49.978;9.966;2023-04-24T00:10:11;2.87;;;1.43;;
56746;SDS011;42623;49.978;9.966;2023-04-24T00:10:21;3.30;;;1.50;;
56746;SDS011;42623;49.978;9.966;2023-04-24T00:10:32;2.37;;;1.27;;
56746;SDS011;42623;49.978;9.966;2023-04-24T00:10:42;2.17;;;1.20;;
56746;SDS011;42623;49.978;9.966;2023-04-24T00:10:52;2.30;;;1.17;;
56746;SDS011;42623;49.978;9.966;2023-04-24T00:11:02;2.73;;;1.27;;
56746;SDS011;42623;49.978;9.966;2023-04-24T00:11:13;3.00;;;1.30;;
56746;SDS011;42623;49.978;9.966;2023-04-24T00:11:23;2.80;;;1.35;;
56746;SDS011;42623;49.978;9.966;2023-04-24T00:11:33;2.70;;;1.30;;
56746;SDS011;42623;49.978;9.966;2023-04-24T00:11:43;2.67;;;1.40;;
56746;SDS011;42623;49.978;9.966;2023-04-24T00:11:53;2.47;;;1.40;;
56746;SDS011;42623;49.978;9.966;2023-04-24T00:12:04;1.97;;;1.30;;
56746;SDS011;42623;49.978;9.966;2023-04-24T00:12:14;2.20;;;1.30;;
56746;SDS011;42623;49.978;9.966;2023-04-24T00:12:25;2.20;;;1.20;;
56746;SDS011;42623;49.978;9.966;2023-04-24T00:12:35;2.47;;;1.23;;
56746;SDS011;42623;49.978;9.966;2023-04-24T00:12:45;2.37;;;1.20;;
56746;SDS011;42623;49.978;9.966;2023-04-24T00:12:55;2.83;;;1.40;;
56746;SDS011;42623;49.978;9.966;2023-04-24T00:13:05;2.35;;;1.27;;
56746;SDS011;42623;49.978;9.966;2023-04-24T00:13:15;2.23;;;1.20;;
56746;SDS011;42623;49.978;9.966;2023-04-24T00:13:26;1.87;;;1.10;;
56746;SDS011;42623;49.978;9.966;2023-04-24T00:13:38;2.05;;;1.17;;
56746;SDS011;42623;49.978;9.966;2023-04-24T00:13:48;2.00;;;1.30;;
56746;SDS011;42623;49.978;9.966;2023-04-24T00:13:58;2.03;;;1.35;;
56746;SDS011;42623;49.978;9.966;2023-04-24T00:14:08;3.07;;;1.50;;
56746;SDS011;42623;49.978;9.966;2023-04-24T00:14:18;2.87;;;1.50;;
56746;SDS011;42623;49.978;9.966;2023-04-24T00:14:29;2.47;;;1.27;;
56746;SDS011;42623;49.978;9.966;2023-04-24T00:14:39;2.27;;;1.23;;
56746;SDS011;42623;49.978;9.966;2023-04-24T00:14:49;2.60;;;1.30;;
56746;SDS011;42623;49.978;9.966;2023-04-24T00:15:00;2.87;;;1.37;;
56746;SDS011;42623;49.978;9.966;2023-04-24T00:15:10;2.25;;;1.27;;
56746;SDS011;42623;49.978;9.966;2023-04-24T00:15:20;2.53;;;1.37;;
56746;SDS011;42623;49.978;9.966;2023-04-24T00:15:31;2.60;;;1.33;;
56746;SDS011;42623;49.978;9.966;2023-04-24T00:15:41;2.28;;;1.30;;
56746;SDS011;42623;49.978;9.966;2023-04-24T00:15:51;1.60;;;1.10;;
56746;SDS011;42623;49.978;9.966;2023-04-24T00:16:01;1.40;;;1.00;;
56746;SDS011;42623;49.978;9.966;2023-04-24T00:16:12;2.00;;;1.30;;
56746;SDS011;42623;49.978;9.966;2023-04-24T00:16:22;2.87;;;1.33;;
56746;SDS011;42623;49.978;9.966;2023-04-24T00:16:32;2.90;;;1.47;;
56746;SDS011;42623;49.978;9.966;2023-04-24T00:16:42;2.38;;;1.25;;
56746;SDS011;42623;49.978;9.966;2023-04-24T00:16:53;1.73;;;1.17;;
56746;SDS011;42623;49.978;9.966;2023-04-24T00:17:03;1.90;;;1.10;;
56746;SDS011;42623;49.978;9.966;2023-04-24T00:17:13;2.37;;;1.47;;
56746;SDS011;42623;49.978;9.966;2023-04-24T00:17:23;2.87;;;1.60;;
56746;SDS011;42623;49.978;9.966;2023-04-24T00:17:33;3.05;;;1.50;;
56746;SDS011;42623;49.978;9.966;2023-04-24T00:17:44;2.60;;;1.00;;
56746;SDS011;42623;49.978;9.966;2023-04-24T00:17:54;2.60;;;1.00;;
56746;SDS011;42623;49.978;9.966;2023-04-24T00:18:04;1.93;;;1.10;;
56746;SDS011;42623;49.978;9.966;2023-04-24T00:18:14;1.95;;;1.27;;
56746;SDS011;42623;49.978;9.966;2023-04-24T00:18:25;1.47;;;1.13;;
56746;SDS011;42623;49.978;9.966;2023-04-24T00:18:35;2.67;;;1.57;;
56746;SDS011;42623;49.978;9.966;2023-04-24T00:18:45;2.72;;;1.58;;
56746;SDS011;42623;49.978;9.966;2023-04-24T00:18:57;3.17;;;1.63;;
56746;SDS011;42623;49.978;9.966;2023-04-24T00:19:08;2.73;;;1.33;;
56746;SDS011;42623;49.978;9.966;2023-04-24T00:19:18;2.88;;;1.30;;
56746;SDS011;42623;49.978;9.966;2023-04-24T00:19:31;2.10;;;1.02;;
56746;SDS011;42623;49.978;9.966;2023-04-24T00:19:41;1.85;;;0.98;;
56746;SDS011;42623;49.978;9.966;2023-04-24T00:19:51;1.67;;;0.90;;
56746;SDS011;42623;49.978;9.966;2023-04-24T00:20:08;1.20;;;0.80;;
56746;SDS011;42623;49.978;9.966;2023-04-24T00:20:20;3.10;;;1.15;;
56746;SDS011;42623;49.978;9.966;2023-04-24T00:20:31;3.78;;;1.45;;
56746;SDS011;42623;49.978;9.966;2023-04-24T00:20:42;3.88;;;1.55;;
56746;SDS011;42623;49.978;9.966;2023-04-24T00:20:53;2.35;;;1.27;;
56746;SDS011;42623;49.978;9.966;2023-04-24T00:21:03;2.47;;;1.50;;
56746;SDS011;42623;49.978;9.966;2023-04-24T00:21:14;2.08;;;1.40;;
56746;SDS011;42623;49.978;9.966;2023-04-24T00:21:26;2.28;;;1.52;;
56746;SDS011;42623;49.978;9.966;2023-04-24T00:21:36;2.40;;;1.30;;
56746;SDS011;42623;49.978;9.966;2023-04-24T00:21:46;2.50;;;1.30;;
56746;SDS011;42623;49.978;9.966;2023-04-24T00:21:59;2.30;;;1.20;;
56746;SDS011;42623;49.978;9.966;2023-04-24T00:22:09;1.53;;;1.13;;
56746;SDS011;42623;49.978;9.966;2023-04-24T00:22:20;1.58;;;1.05;;
56746;SDS011;42623;49.978;9.966;2023-04-24T00:22:31;1.53;;;1.00;;
56746;SDS011;42623;49.978;9.966;2023-04-24T00:22:41;1.95;;;1.00;;
56746;SDS011;42623;49.978;9.966;2023-04-24T00:22:51;2.30;;;1.20;;
56746;SDS011;42623;49.978;9.966;2023-04-24T00:23:01;2.53;;;1.30;;
56746;SDS011;42623;49.978;9.966;2023-04-24T00:23:12;2.15;;;1.20;;
56746;SDS011;42623;49.978;9.966;2023-04-24T00:23:22;2.07;;;1.17;;
56746;SDS011;42623;49.978;9.966;2023-04-24T00:23:32;1.53;;;1.00;;
56746;SDS011;42623;49.978;9.966;2023-04-24T00:23:43;1.50;;;1.00;;
56746;SDS011;42623;49.978;9.966;2023-04-24T00:23:53;1.75;;;1.05;;
56746;SDS011;42623;49.978;9.966;2023-04-24T00:24:03;2.43;;;1.17;;
56746;SDS011;42623;49.978;9.966;2023-04-24T00:24:14;2.77;;;1.20;;
56746;SDS011;42623;49.978;9.966;2023-04-24T00:24:24;3.00;;;1.30;;
56746;SDS011;42623;49.978;9.966;2023-04-24T00:24:34;2.67;;;1.30;;
56746;SDS011;42623;49.978;9.966;2023-04-24T00:24:44;2.93;;;1.43;;
56746;SDS011;42623;49.978;9.966;2023-04-24T00:24:54;2.27;;;1.20;;
56746;SDS011;42623;49.978;9.966;2023-04-24T00:25:05;1.98;;;1.10;;
56746;SDS011;42623;49.978;9.966;2023-04-24T00:25:15;1.73;;;1.07;;
56746;SDS011;42623;49.978;9.966;2023-04-24T00:25:26;2.28;;;1.27;;
56746;SDS011;42623;49.978;9.966;2023-04-24T00:25:36;2.57;;;1.57;;
56746;SDS011;42623;49.978;9.966;2023-04-24T00:25:46;2.83;;;1.63;;
56746;SDS011;42623;49.978;9.966;2023-04-24T00:25:56;3.03;;;1.60;;
56746;SDS011;42623;49.978;9.966;2023-04-24T00:26:06;2.60;;;1.30;;
56746;SDS011;42623;49.978;9.966;2023-04-24T00:26:16;1.98;;;1.20;;
56746;SDS011;42623;49.978;9.966;2023-04-24T00:26:26;1.60;;;1.20;;
56746;SDS011;42623;49.978;9.966;2023-04-24T00:26:37;2.03;;;1.27;;
56746;SDS011;42623;49.978;9.966;2023-04-24T00:26:47;2.30;;;1.38;;
56746;SDS011;42623;49.978;9.966;2023-04-24T00:26:57;2.40;;;1.27;;
56746;SDS011;42623;49.978;9.966;2023-04-24T00:27:07;2.23;;;1.33;;
56746;SDS011;42623;49.978;9.966;2023-04-24T00:27:17;2.43;;;1.30;;
56746;SDS011;42623;49.978;9.966;2023-04-24T00:27:28;2.60;;;1.43;;
56746;SDS011;42623;49.978;9.966;2023-04-24T00:27:38;2.78;;;1.30;;
56746;SDS011;42623;49.978;9.966;2023-04-24T00:27:48;2.37;;;1.20;;
56746;SDS011;42623;49.978;9.966;2023-04-24T00:27:58;1.87;;;1.13;;
56746;SDS011;42623;49.978;9.966;2023-04-24T00:28:08;1.67;;;1.07;;
56746;SDS011;42623;49.978;9.966;2023-04-24T00:28:19;1.95;;;1.08;;
56746;SDS011;42623;49.978;9.966;2023-04-24T00:28:29;1.83;;;1.00;;
56746;SDS011;42623;49.978;9.966;2023-04-24T00:28:39;1.73;;;1.00;;
56746;SDS011;42623;49.978;9.966;2023-04-24T00:28:49;1.27;;;1.00;;
56746;SDS011;42623;49.978;9.966;2023-04-24T00:28:59;1.45;;;1.00;;
56746;SDS011;42623;49.978;9.966;2023-04-24T00:29:10;1.70;;;1.13;;
56746;SDS011;42623;49.978;9.966;2023-04-24T00:29:20;2.10;;;1.30;;
56746;SDS011;42623;49.978;9.966;2023-04-24T00:29:30;1.83;;;1.10;;
56746;SDS011;42623;49.978;9.966;2023-04-24T00:29:40;1.73;;;1.00;;
56746;SDS011;42623;49.978;9.966;2023-04-24T00:29:50;1.70;;;0.90;;
56746;SDS011;42623;49.978;9.966;2023-04-24T00:30:00;1.80;;;1.17;;
56746;SDS011;42623;49.978;9.966;2023-04-24T00:30:10;1.97;;;1.13;;
56746;SDS011;42623;49.978;9.966;2023-04-24T00:30:21;1.73;;;1.03;;
56746;SDS011;42623;49.978;9.966;2023-04-24T00:30:31;2.00;;;0.93;;
56746;SDS011;42623;49.978;9.966;2023-04-24T00:30:41;2.00;;;1.10;;
56746;SDS011;42623;49.978;9.966;2023-04-24T00:30:52;2.00;;;1.20;;
56746;SDS011;42623;49.978;9.966;2023-04-24T00:31:02;2.37;;;1.07;;
56746;SDS011;42623;49.978;9.966;2023-04-24T00:31:12;2.73;;;1.10;;
56746;SDS011;42623;49.978;9.966;2023-04-24T00:31:22;3.08;;;1.10;;
56746;SDS011;42623;49.978;9.966;2023-04-24T00:31:32;1.80;;;1.07;;
56746;SDS011;42623;49.978;9.966;2023-04-24T00:31:44;2.08;;;1.33;;
56746;SDS011;42623;49.978;9.966;2023-04-24T00:31:55;2.47;;;1.50;;
56746;SDS011;42623;49.978;9.966;2023-04-24T00:32:05;2.70;;;1.50;;
56746;SDS011;42623;49.978;9.966;2023-04-24T00:32:15;2.03;;;1.13;;
56746;SDS011;42623;49.978;9.966;2023-04-24T00:32:25;1.90;;;1.10;;
56746;SDS011;42623;49.978;9.966;2023-04-24T00:32:35;1.80;;;1.00;;
56746;SDS011;42623;49.978;9.966;2023-04-24T00:32:46;2.13;;;1.10;;
56746;SDS011;42623;49.978;9.966;2023-04-24T00:32:56;1.90;;;1.00;;
56746;SDS011;42623;49.978;9.966;2023-04-24T00:33:06;1.80;;;1.00;;
56746;SDS011;42623;49.978;9.966;2023-04-24T00:33:16;1.55;;;1.00;;
56746;SDS011;42623;49.978;9.966;2023-04-24T00:33:27;3.93;;;1.20;;
56746;SDS011;42623;49.978;9.966;2023-04-24T00:33:37;3.77;;;1.10;;
56746;SDS011;42623;49.978;9.966;2023-04-24T00:33:47;3.77;;;1.17;;
56746;SDS011;42623;49.978;9.966;2023-04-24T00:33:57;2.53;;;1.10;;
56746;SDS011;42623;49.978;9.966;2023-04-24T00:34:07;2.63;;;1.10;;
56746;SDS011;42623;49.978;9.966;2023-04-24T00:34:18;2.63;;;1.20;;
56746;SDS011;42623;49.978;9.966;2023-04-24T00:34:28;2.00;;;1.20;;
56746;SDS011;42623;49.978;9.966;2023-04-24T00:34:38;2.00;;;1.27;;
56746;SDS011;42623;49.978;9.966;2023-04-24T00:34:48;1.73;;;1.13;;
56746;SDS011;42623;49.978;9.966;2023-04-24T00:34:58;1.73;;;1.20;;
56746;SDS011;42623;49.978;9.966;2023-04-24T00:35:08;1.77;;;1.13;;
56746;SDS011;42623;49.978;9.966;2023-04-24T00:35:19;2.23;;;1.23;;
56746;SDS011;42623;49.978;9.966;2023-04-24T00:35:29;2.00;;;1.13;;
56746;SDS011;42623;49.978;9.966;2023-04-24T00:35:40;2.07;;;1.20;;
56746;SDS011;42623;49.978;9.966;2023-04-24T00:35:50;2.65;;;1.08;;
56746;SDS011;42623;49.978;9.966;2023-04-24T00:36:00;5.13;;;1.30;;
56746;SDS011;42623;49.978;9.966;2023-04-24T00:36:10;5.17;;;1.30;;
56746;SDS011;42623;49.978;9.966;2023-04-24T00:36:21;4.63;;;1.40;;
56746;SDS011;42623;49.978;9.966;2023-04-24T00:36:31;2.57;;;1.27;;
56746;SDS011;42623;49.978;9.966;2023-04-24T00:36:42;2.42;;;1.25;;
56746;SDS011;42623;49.978;9.966;2023-04-24T00:36:52;1.83;;;1.07;;
56746;SDS011;42623;49.978;9.966;2023-04-24T00:37:02;1.27;;;1.00;;
56746;SDS011;42623;49.978;9.966;2023-04-24T00:37:12;1.40;;;0.98;;
56746;SDS011;42623;49.978;9.966;2023-04-24T00:37:23;1.50;;;0.97;;
56746;SDS011;42623;49.978;9.966;2023-04-24T00:37:33;2.13;;;1.20;;
56746;SDS011;42623;49.978;9.966;2023-04-24T00:37:43;1.87;;;1.13;;
56746;SDS011;42623;49.978;9.966;2023-04-24T00:37:53;1.83;;;1.10;;
56746;SDS011;42623;49.978;9.966;2023-04-24T00:38:03;1.35;;;0.90;;
56746;SDS011;42623;49.978;9.966;2023-04-24T00:38:13;1.47;;;0.90;;
56746;SDS011;42623;49.978;9.966;2023-04-24T00:38:23;1.43;;;0.90;;
56746;SDS011;42623;49.978;9.966;2023-04-24T00:38:34;1.67;;;1.00;;
56746;SDS011;42623;49.978;9.966;2023-04-24T00:38:44;1.60;;;0.90;;
56746;SDS011;42623;49.978;9.966;2023-04-24T00:38:54;1.77;;;0.93;;
56746;SDS011;42623;49.978;9.966;2023-04-24T00:39:05;1.47;;;0.80;;
56746;SDS011;42623;49.978;9.966;2023-04-24T00:39:15;1.75;;;0.90;;
56746;SDS011;42623;49.978;9.966;2023-04-24T00:39:25;1.40;;;0.80;;
56746;SDS011;42623;49.978;9.966;2023-04-24T00:39:35;1.23;;;0.70;;
56746;SDS011;42623;49.978;9.966;2023-04-24T00:39:45;1.03;;;0.70;;
56746;SDS011;42623;49.978;9.966;2023-04-24T00:39:56;1.48;;;0.98;;
56746;SDS011;42623;49.978;9.966;2023-04-24T00:40:06;1.93;;;1.20;;
56746;SDS011;42623;49.978;9.966;2023-04-24T00:40:16;2.93;;;1.47;;
56746;SDS011;42623;49.978;9.966;2023-04-24T00:40:27;2.30;;;1.20;;
56746;SDS011;42623;49.978;9.966;2023-04-24T00:40:37;2.45;;;1.20;;
56746;SDS011;42623;49.978;9.966;2023-04-24T00:40:47;1.67;;;0.97;;
56746;SDS011;42623;49.978;9.966;2023-04-24T00:40:58;2.05;;;1.13;;
56746;SDS011;42623;49.978;9.966;2023-04-24T00:41:08;2.70;;;1.10;;
56746;SDS011;42623;49.978;9.966;2023-04-24T00:41:18;2.57;;;1.10;;
56746;SDS011;42623;49.978;9.966;2023-04-24T00:41:28;2.93;;;1.20;;
56746;SDS011;42623;49.978;9.966;2023-04-24T00:41:39;2.13;;;1.20;;
56746;SDS011;42623;49.978;9.966;2023-04-24T00:41:49;2.20;;;1.13;;
56746;SDS011;42623;49.978;9.966;2023-04-24T00:42:00;1.60;;;1.08;;
56746;SDS011;42623;49.978;9.966;2023-04-24T00:42:11;1.52;;;1.17;;
56746;SDS011;42623;49.978;9.966;2023-04-24T00:42:21;1.43;;;1.20;;
56746;SDS011;42623;49.978;9.966;2023-04-24T00:42:32;1.70;;;1.20;;
56746;SDS011;42623;49.978;9.966;2023-04-24T00:42:43;2.00;;;1.08;;
56746;SDS011;42623;49.978;9.966;2023-04-24T00:42:53;2.45;;;1.15;;
56746;SDS011;42623;49.978;9.966;2023-04-24T00:43:03;2.07;;;1.03;;
56746;SDS011;42623;49.978;9.966;2023-04-24T00:43:13;1.77;;;1.07;;
56746;SDS011;42623;49.978;9.966;2023-04-24T00:43:23;1.63;;;1.00;;
56746;SDS011;42623;49.978;9.966;2023-04-24T00:43:34;1.73;;;1.10;;
56746;SDS011;42623;49.978;9.966;2023-04-24T00:43:44;1.93;;;1.03;;
56746;SDS011;42623;49.978;9.966;2023-04-24T00:43:55;1.48;;;0.90;;
56746;SDS011;42623;49.978;9.966;2023-04-24T00:44:06;1.20;;;0.87;;
56746;SDS011;42623;49.978;9.966;2023-04-24T00:44:16;0.88;;;0.70;;
56746;SDS011;42623;49.978;9.966;2023-04-24T00:44:26;1.40;;;0.70;;
56746;SDS011;42623;49.978;9.966;2023-04-24T00:44:36;2.10;;;0.80;;
56746;SDS011;42623;49.978;9.966;2023-04-24T00:44:47;2.60;;;1.30;;
56746;SDS011;42623;49.978;9.966;2023-04-24T00:44:57;2.57;;;1.40;;
56746;SDS011;42623;49.978;9.966;2023-04-24T00:45:07;1.97;;;1.30;;
56746;SDS011;42623;49.978;9.966;2023-04-24T00:45:18;1.92;;;1.05;;
56746;SDS011;42623;49.978;9.966;2023-04-24T00:45:28;2.00;;;1.20;;
56746;SDS011;42623;49.978;9.966;2023-04-24T00:45:38;2.17;;;1.23;;
56746;SDS011;42623;49.978;9.966;2023-04-24T00:45:48;2.10;;;1.27;;
56746;SDS011;42623;49.978;9.966;2023-04-24T00:45:58;1.97;;;1.10;;
56746;SDS011;42623;49.978;9.966;2023-04-24T00:46:11;1.90;;;1.10;;
56746;SDS011;42623;49.978;9.966;2023-04-24T00:46:21;2.33;;;1.10;;
56746;SDS011;42623;49.978;9.966;2023-04-24T00:46:31;2.57;;;1.23;;
56746;SDS011;42623;49.978;9.966;2023-04-24T00:46:42;2.77;;;1.40;;
56746;SDS011;42623;49.978;9.966;2023-04-24T00:46:52;2.45;;;1.33;;
56746;SDS011;42623;49.978;9.966;2023-04-24T00:47:04;2.10;;;1.25;;
56746;SDS011;42623;49.978;9.966;2023-04-24T00:47:14;1.80;;;1.13;;
56746;SDS011;42623;49.978;9.966;2023-04-24T00:47:25;1.70;;;1.00;;
56746;SDS011;42623;49.978;9.966;2023-04-24T00:47:35;1.58;;;1.00;;
56746;SDS011;42623;49.978;9.966;2023-04-24T00:47:45;1.60;;;1.10;;
56746;SDS011;42623;49.978;9.966;2023-04-24T00:47:56;1.40;;;1.00;;
56746;SDS011;42623;49.978;9.966;2023-04-24T00:48:06;1.80;;;1.07;;
56746;SDS011;42623;49.978;9.966;2023-04-24T00:48:17;1.40;;;0.90;;
56746;SDS011;42623;49.978;9.966;2023-04-24T00:48:27;1.50;;;1.00;;
56746;SDS011;42623;49.978;9.966;2023-04-24T00:48:40;1.77;;;1.10;;
56746;SDS011;42623;49.978;9.966;2023-04-24T00:48:50;2.50;;;1.15;;
56746;SDS011;42623;49.978;9.966;2023-04-24T00:49:01;2.67;;;1.20;;
56746;SDS011;42623;49.978;9.966;2023-04-24T00:49:12;2.20;;;1.00;;
56746;SDS011;42623;49.978;9.966;2023-04-24T00:49:23;2.08;;;1.10;;
56746;SDS011;42623;49.978;9.966;2023-04-24T00:49:33;1.88;;;1.05;;
56746;SDS011;42623;49.978;9.966;2023-04-24T00:49:43;2.27;;;1.27;;
56746;SDS011;42623;49.978;9.966;2023-04-24T00:49:54;1.87;;;1.20;;
56746;SDS011;42623;49.978;9.966;2023-04-24T00:50:05;1.73;;;1.15;;
56746;SDS011;42623;49.978;9.966;2023-04-24T00:50:15;1.73;;;1.10;;
56746;SDS011;42623;49.978;9.966;2023-04-24T00:50:25;1.90;;;1.10;;
56746;SDS011;42623;49.978;9.966;2023-04-24T00:50:36;3.00;;;1.40;;
56746;SDS011;42623;49.978;9.966;2023-04-24T00:50:47;2.50;;;1.23;;
56746;SDS011;42623;49.978;9.966;2023-04-24T00:50:57;2.40;;;1.20;;
56746;SDS011;42623;49.978;9.966;2023-04-24T00:51:08;1.70;;;0.98;;
56746;SDS011;42623;49.978;9.966;2023-04-24T00:51:18;2.20;;;1.20;;
56746;SDS011;42623;49.978;9.966;2023-04-24T00:51:29;2.30;;;1.20;;
56746;SDS011;42623;49.978;9.966;2023-04-24T00:51:40;1.85;;;0.98;;
56746;SDS011;42623;49.978;9.966;2023-04-24T00:51:56;1.20;;;0.90;;
56746;SDS011;42623;49.978;9.966;2023-04-24T00:52:06;1.40;;;0.98;;
56746;SDS011;42623;49.978;9.966;2023-04-24T00:52:18;2.03;;;1.25;;
56746;SDS011;42623;49.978;9.966;2023-04-24T00:52:29;2.22;;;1.40;;
56746;SDS011;42623;49.978;9.966;2023-04-24T00:52:41;2.58;;;1.40;;
56746;SDS011;42623;49.978;9.966;2023-04-24T00:52:51;2.00;;;1.10;;
56746;SDS011;42623;49.978;9.966;2023-04-24T00:53:01;2.13;;;1.07;;
56746;SDS011;42623;49.978;9.966;2023-04-24T00:53:11;1.67;;;0.90;;
56746;SDS011;42623;49.978;9.966;2023-04-24T00:53:21;1.50;;;0.87;;
56746;SDS011;42623;49.978;9.966;2023-04-24T00:53:31;1.00;;;0.70;;
56746;SDS011;42623;49.978;9.966;2023-04-24T00:53:42;0.73;;;0.67;;
56746;SDS011;42623;49.978;9.966;2023-04-24T00:53:52;1.67;;;0.95;;
56746;SDS011;42623;49.978;9.966;2023-04-24T00:54:02;2.43;;;1.10;;
56746;SDS011;42623;49.978;9.966;2023-04-24T00:54:13;2.43;;;1.10;;
56746;SDS011;42623;49.978;9.966;2023-04-24T00:54:23;1.80;;;0.93;;
56746;SDS011;42623;49.978;9.966;2023-04-24T00:54:33;2.13;;;1.10;;
56746;SDS011;42623;49.978;9.966;2023-04-24T00:54:44;2.90;;;1.43;;
56746;SDS011;42623;49.978;9.966;2023-04-24T00:54:55;2.78;;;1.40;;
56746;SDS011;42623;49.978;9.966;2023-04-24T00:55:05;1.92;;;1.20;;
56746;SDS011;42623;49.978;9.966;2023-04-24T00:55:15;1.33;;;0.93;;
56746;SDS011;42623;49.978;9.966;2023-04-24T00:55:26;1.10;;;0.90;;
56746;SDS011;42623;49.978;9.966;2023-04-24T00:55:36;1.45;;;1.10;;
56746;SDS011;42623;49.978;9.966;2023-04-24T00:55:47;2.05;;;1.13;;
56746;SDS011;42623;49.978;9.966;2023-04-24T00:55:57;2.23;;;1.20;;
56746;SDS011;42623;49.978;9.966;2023-04-24T00:56:07;2.00;;;1.07;;
56746;SDS011;42623;49.978;9.966;2023-04-24T00:56:17;1.90;;;1.00;;
56746;SDS011;42623;49.978;9.966;2023-04-24T00:56:28;1.88;;;1.00;;
56746;SDS011;42623;49.978;9.966;2023-04-24T00:56:39;1.50;;;0.97;;
56746;SDS011;42623;49.978;9.966;2023-04-24T00:56:49;1.70;;;1.10;;
56746;SDS011;42623;49.978;9.966;2023-04-24T00:57:02;1.92;;;1.20;;
56746;SDS011;42623;49.978;9.966;2023-04-24T00:57:12;1.73;;;1.00;;
56746;SDS011;42623;49.978;9.966;2023-04-24T00:57:23;1.80;;;1.10;;
56746;SDS011;42623;49.978;9.966;2023-04-24T00:57:34;1.73;;;1.02;;
56746;SDS011;42623;49.978;9.966;2023-04-24T00:57:45;1.67;;;0.90;;
56746;SDS011;42623;49.978;9.966;2023-04-24T00:57:56;1.67;;;0.90;;
56746;SDS011;42623;49.978;9.966;2023-04-24T00:58:06;1.90;;;1.00;;
56746;SDS011;42623;49.978;9.966;2023-04-24T00:58:16;2.20;;;1.17;;
56746;SDS011;42623;49.978;9.966;2023-04-24T00:58:27;1.97;;;1.10;;
56746;SDS011;42623;49.978;9.966;2023-04-24T00:58:37;1.93;;;1.07;;
56746;SDS011;42623;49.978;9.966;2023-04-24T00:58:47;1.55;;;1.05;;
56746;SDS011;42623;49.978;9.966;2023-04-24T00:58:57;1.60;;;1.10;;
56746;SDS011;42623;49.978;9.966;2023-04-24T00:59:08;1.50;;;1.10;;
56746;SDS011;42623;49.978;9.966;2023-04-24T00:59:18;1.42;;;1.10;;
56746;SDS011;42623;49.978;9.966;2023-04-24T00:59:28;1.53;;;1.10;;
56746;SDS011;42623;49.978;9.966;2023-04-24T00:59:39;1.60;;;1.10;;
56746;SDS011;42623;49.978;9.966;2023-04-24T00:59:51;1.55;;;1.05;;
56746;SDS011;42623;49.978;9.966;2023-04-24T01:00:01;1.48;;;1.00;;
56746;SDS011;42623;49.978;9.966;2023-04-24T01:00:13;1.27;;;0.90;;
56746;SDS011;42623;49.978;9.966;2023-04-24T01:00:24;1.63;;;1.00;;
56746;SDS011;42623;49.978;9.966;2023-04-24T01:00:35;2.03;;;1.02;;
56746;SDS011;42623;49.978;9.966;2023-04-24T01:00:45;2.13;;;1.03;;
56746;SDS011;42623;49.978;9.966;2023-04-24T01:00:56;2.30;;;1.05;;
56746;SDS011;42623;49.978;9.966;2023-04-24T01:01:07;1.85;;;0.95;;
56746;SDS011;42623;49.978;9.966;2023-04-24T01:01:19;2.33;;;1.30;;
56746;SDS011;42623;49.978;9.966;2023-04-24T01:01:30;1.77;;;1.17;;
56746;SDS011;42623;49.978;9.966;2023-04-24T01:01:41;1.80;;;1.07;;
56746;SDS011;42623;49.978;9.966;2023-04-24T01:01:51;2.03;;;1.17;;
56746;SDS011;42623;49.978;9.966;2023-04-24T01:02:02;3.07;;;1.30;;
56746;SDS011;42623;49.978;9.966;2023-04-24T01:02:13;2.53;;;1.13;;
56746;SDS011;42623;49.978;9.966;2023-04-24T01:02:23;2.43;;;1.00;;
56746;SDS011;42623;49.978;9.966;2023-04-24T01:02:34;1.50;;;0.90;;
56746;SDS011;42623;49.978;9.966;2023-04-24T01:02:44;2.20;;;1.30;;
56746;SDS011;42623;49.978;9.966;2023-04-24T01:02:55;2.57;;;1.40;;
56746;SDS011;42623;49.978;9.966;2023-04-24T01:03:05;2.90;;;1.40;;
56746;SDS011;42623;49.978;9.966;2023-04-24T01:03:15;2.20;;;1.07;;
56746;SDS011;42623;49.978;9.966;2023-04-24T01:03:28;1.92;;;1.02;;